메인 페이지
METAR-TAF:

METAR-TAF

공항 :

Naval Air Station JRB Fort Worth (Carswell Field)

포트워스, 텍사스, 미국

위도: 32-45-57N, 경도: 097-26-00W, 고도: 198m

현재 날씨관측

예보는 18분 전, 09:52시(UTC)에 발표되었습니다.
무풍
온도 6°C
습도 61%
기압 1026 hPa
맑음

METAR: KNFW 120952Z AUTO 00000KT CLR 06/M01 A3031 RMK AO2 SLP247 T00611006 VISNO N $

시각: 04:10 (10:10 UTC)

예보

예보 대상 시간: 12일 07시부터 13일 07시까지 (UTC)
남남동10kt
시정 10km 이상
고도 25000ft 상공 구름 많음
전환 중
12일 08시부터 12일 10시까지 (UTC)
11kt
시정: 9000m
고도 1000ft 상공 구름 조금
박무
일시적
12일 10시부터 12일 16시까지 (UTC)
시정: 3200m
박무
12일 1600시부터 (UTC)
11kt
시정 10km 이상
고도 2000ft 상공 구름 조금
고도 25000ft 상공 구름 조금
13일 0000시부터 (UTC)
여러 방향의 바람 6kt
시정: 1212m
고도 2000ft 상공 구름 조금

TAF: KNFW 1207/1307 15010KT 9999 BKN250 QNH3030INS BECMG 1208/1210 17011KT 9000 BR FEW010 QNH3025INS TEMPO 1210/1216 3200 BR FM121600 19011KT 9999 FEW020 FEW250 QNH3010INS FM130000 VRB06KT 9999 FEW020 QNH3000INS AUTOMATED SENSOR METWATCH 1207 TIL 1212 T03/1215Z T09/1221Z FN00204

4,000개 이상의 공항 관측 자료 및 예보 (METAR 및 TAF 보고).

지도상에서 검색 가능한 기상관측소가 노란 점과 빨간 점으로 표시되어 있습니다.

기상관측소 명을 보려면 표시 위로 마우스를 이동하세요.

날씨 관측과 예보를 보려면 클릭하세요.

지도 변경 : 확대하려면 엑스 표시가 있는 녹색 버튼, 축소하려면 빼기 표시가 있는 녹색 버튼, 다음 페이지의 지도를 보려면 녹색 화살표를 클릭하세요.


METAR-TAF: